Latest Coastal Weather Observations for Kowanyama

IDQ60701

Issued at 10:25 pm EST Monday 21 April 2014 (issued every 10 minutes, with the page automatically refreshed every 10 minutes)

About coastal observations | Map of coastal stations | Coastal observations for QLD | Marine services | Other Formats
Station Details ID: 029038 Name: KOWANYAMA AIRPORT Lat: -15.48 Lon: 141.75 Height: 9.6 m
Data from the previous 72 hours. | See also: Recent months at Kowanyama
Date/Time
EST
Temp

°C
Wind Pressure Rain
since 9am
mm
Weather Cloud Vis
km
Sea
Height
m
Swell
Dir
 
Speed
knots
Gust
knots
hPa Trend Height
m
Period
s
Dir
21/10:00pm 25.7 SE 8 10 1013.5 - 0.0 - - - - - - -
21/09:30pm 26.0 SE 9 11 1013.3 - 0.0 - - - - - - -
21/09:00pm 26.6 SE 13 19 1013.0 - 0.0 - - - - - - -
21/08:30pm 27.1 SE 6 8 1012.5 - 0.0 - - - - - - -
21/08:00pm 27.6 ESE 5 6 1012.2 - 0.0 - - - - - - -
21/07:30pm 27.5 ESE 4 5 1011.9 - 0.0 - - - - - - -
21/07:00pm 27.5 SE 4 5 1011.5 - 0.0 - - - - - - -
21/06:30pm 28.4 ESE 4 5 1011.2 - 0.0 - - - - - - -
21/06:00pm 28.6 E 4 6 1011.0 - 0.0 - - - - - - -
21/05:30pm 29.0 E 3 5 1011.0 - 0.0 - - - - - - -
21/05:00pm 29.4 ENE 1 4 1010.8 - 0.0 - - - - - - -
21/04:30pm 29.7 E 4 5 1010.4 - 0.0 - - - - - - -
21/04:00pm 30.2 ESE 5 7 1010.4 - 0.0 - - - - - - -
21/03:30pm 30.7 E 6 10 1010.2 - 0.0 - - - - - - -
21/03:00pm 30.6 E 6 9 1010.1 - 0.0 - - - - - - -
21/02:30pm 31.1 ENE 7 13 1010.2 - 0.0 - - - - - - -
21/02:00pm 31.0 ENE 8 15 1010.4 - 0.0 - - - - - - -
21/01:30pm 31.8 E 8 13 1010.7 - 0.0 - - - - - - -
21/01:00pm 31.7 ESE 10 14 1010.9 - 0.0 - - - - - - -
21/12:30pm 31.0 E 9 14 1011.2 - 0.0 - - - - - - -
21/12:00pm 30.5 E 10 16 1011.5 - 0.0 - - - - - - -
21/11:30am 30.5 E 10 15 1012.0 - 0.0 - - - - - - -
21/11:00am 29.9 E 10 15 1012.4 - 0.0 - - - - - - -
21/10:30am 29.3 E 10 16 1012.8 - 0.0 - - - - - - -
21/10:00am 28.6 E 10 16 1012.9 - 0.0 - - - - - - -
21/09:30am 27.6 E 8 13 1013.0 - 0.0 - - - - - - -
21/09:00am 25.7 E 6 8 1013.0 - 0.0 - - - - - - -
21/08:30am 24.3 E 7 9 1012.9 - 0.0 - - - - - - -
21/08:00am 22.9 ESE 5 6 1012.7 - 0.0 - - - - - - -
21/07:30am 21.5 SE 5 6 1012.6 - 0.0 - - - - - - -
21/07:00am 19.8 SSE 3 4 1012.4 - 0.0 - - - - - - -
21/06:30am 20.1 ESE 4 6 1012.1 - 0.0 - - - - - - -
21/06:00am 19.8 SE 3 5 1011.8 - 0.0 - - - - - - -
21/05:30am 20.2 SE 2 4 1011.6 - 0.0 - - - - - - -
21/05:00am 20.4 SSE 2 4 1011.4 - 0.0 - - - - - - -
21/04:30am 20.8 CALM 0 3 1011.2 - 0.0 - - - - - - -
21/04:00am 20.7 SE 2 5 1011.2 - 0.0 - - - - - - -
21/03:30am 21.3 SE 3 4 1011.1 - 0.0 - - - - - - -
21/03:00am 22.3 E 3 5 1010.9 - 0.0 - - - - - - -
21/02:30am 22.8 E 4 5 1011.2 - 0.0 - - - - - - -
21/02:00am 23.1 E 4 6 1011.5 - 0.0 - - - - - - -
21/01:30am 23.1 E 4 5 1011.5 - 0.0 - - - - - - -
21/01:00am 23.6 E 4 6 1011.6 - 0.0 - - - - - - -
21/12:30am 24.0 E 4 6 1011.8 - 0.0 - - - - - - -
21/12:00am 24.2 E 4 6 1011.9 - 0.0 - - - - - - -
 
Date/Time
EST
Temp

°C
Wind Pressure Rain
since 9am
mm
Weather Cloud Vis
km
Sea
Height
m
Swell
Dir
 
Speed
knots
Gust
knots
hPa Trend Height
m
Period
s
Dir
20/11:30pm 24.7 ESE 5 7 1012.2 - 0.0 - - - - - - -
20/11:00pm 24.9 E 4 6 1012.4 - 0.0 - - - - - - -
20/10:30pm 25.3 E 4 6 1012.6 - 0.0 - - - - - - -
20/10:00pm 25.5 ESE 4 5 1012.7 - 0.0 - - - - - - -
20/09:30pm 25.3 E 3 4 1012.5 - 0.0 - - - - - - -
20/09:00pm 25.8 ESE 4 6 1012.2 - 0.0 - - - - - - -
20/08:30pm 26.5 ESE 6 8 1012.1 - 0.0 - - - - - - -
20/08:00pm 26.1 ESE 5 7 1011.7 - 0.0 - - - - - - -
20/07:30pm 25.8 ESE 4 5 1011.2 - 0.0 - - - - - - -
20/07:00pm 26.3 ESE 4 5 1011.0 - 0.0 - - - - - - -
20/06:30pm 28.2 ESE 5 7 1010.7 - 0.0 - - - - - - -
20/06:00pm 29.4 ESE 7 8 1010.3 - 0.0 - - - - - - -
20/05:30pm 30.4 ESE 7 11 1010.2 - 0.0 - - - - - - -
20/05:00pm 30.9 ESE 8 12 1009.9 - 0.0 - - - - - - -
20/04:30pm 31.4 ESE 8 14 1009.7 - 0.0 - - - - - - -
20/04:00pm 31.5 ESE 11 17 1009.5 - 0.0 - - - - - - -
20/03:30pm 31.8 ESE 10 17 1009.5 - 0.0 - - - - - - -
20/03:00pm 32.1 ESE 10 14 1009.4 - 0.0 - - - - - - -
20/02:30pm 31.9 E 7 11 1009.7 - 0.0 - - - - - - -
20/02:00pm 31.1 ESE 11 15 1010.1 - 0.0 - - - - - - -
20/01:30pm 31.0 E 10 15 1010.4 - 0.0 - - - - - - -
20/01:00pm 30.8 E 9 12 1010.8 - 0.0 - - - - - - -
20/12:30pm 30.2 E 7 12 1011.1 - 0.0 - - - - - - -
20/12:00pm 29.7 E 8 12 1011.6 - 0.0 - - - - - - -
20/11:30am 29.5 E 9 15 1012.0 - 0.0 - - - - - - -
20/11:00am 28.8 E 8 13 1012.4 - 0.0 - - - - - - -
20/10:30am 27.7 E 8 13 1012.7 - 0.0 - - - - - - -
20/10:00am 26.9 E 10 14 1012.8 - 0.0 - - - - - - -
20/09:30am 26.2 ENE 10 13 1012.7 - 0.0 - - - - - - -
20/09:00am 25.1 E 5 8 1012.5 - 0.0 - - - - - - -
20/08:30am 23.6 E 5 8 1012.6 - 0.0 - - - - - - -
20/08:00am 23.2 ESE 5 7 1012.3 - 0.0 - - - - - - -
20/07:30am 22.7 E 4 7 1012.1 - 0.0 - - - - - - -
20/07:00am 22.2 E 4 7 1011.9 - 0.0 - - - - - - -
20/06:30am 22.1 E 3 5 1011.6 - 0.0 - - - - - - -
20/06:00am 21.7 ESE 4 5 1011.3 - 0.0 - - - - - - -
20/05:30am 22.6 E 1 4 1011.3 - 0.0 - - - - - - -
20/05:00am 22.8 E 4 5 1011.0 - 0.0 - - - - - - -
20/04:30am 22.9 E 3 6 1010.6 - 0.0 - - - - - - -
20/04:00am 23.0 ENE 3 5 1010.7 - 0.0 - - - - - - -
20/03:30am 23.3 E 4 5 1010.6 - 0.0 - - - - - - -
20/03:00am 23.4 ENE 4 6 1010.6 - 0.0 - - - - - - -
20/02:30am 23.3 ENE 2 5 1010.8 - 0.0 - - - - - - -
20/02:00am 23.8 CALM 0 3 1010.9 - 0.0 - - - - - - -
20/01:30am 24.1 ENE 3 5 1011.0 - 0.0 - - - - - - -
20/01:00am 24.4 ENE 1 4 1011.4 - 0.0 - - - - - - -
20/12:30am 24.7 NE 2 5 1011.6 - 0.0 - - - - - - -
20/12:00am 25.2 ENE 3 6 1011.6 - 0.0 - - - - - - -
 
Date/Time
EST
Temp

°C
Wind Pressure Rain
since 9am
mm
Weather Cloud Vis
km
Sea
Height
m
Swell
Dir
 
Speed
knots
Gust
knots
hPa Trend Height
m
Period
s
Dir
19/11:30pm 25.4 E 4 5 1011.9 - 0.0 - - - - - - -
19/11:00pm 25.7 ENE 2 4 1012.0 - 0.0 - - - - - - -
19/10:30pm 25.8 ENE 1 4 1012.1 - 0.0 - - - - - - -
19/10:00pm 26.0 E 3 4 1012.1 - 0.0 - - - - - - -
19/09:30pm 25.8 CALM 0 0 1012.1 - 0.0 - - - - - - -
19/09:00pm 26.2 E 2 4 1011.8 - 0.0 - - - - - - -
19/08:30pm 26.7 CALM 0 0 1011.7 - 0.0 - - - - - - -
19/08:00pm 26.7 ENE 3 4 1011.3 - 0.0 - - - - - - -
19/07:30pm 27.9 ESE 1 4 1011.0 - 0.0 - - - - - - -
19/07:00pm 27.8 ESE 1 3 1010.8 - 0.0 - - - - - - -
19/06:30pm 28.4 E 4 5 1010.4 - 0.0 - - - - - - -
19/06:00pm 29.6 E 3 4 1010.1 - 0.0 - - - - - - -
19/05:30pm 30.3 ESE 4 6 1010.0 - 0.0 - - - - - - -
19/05:00pm 30.9 ESE 5 7 1009.8 - 0.0 - - - - - - -
19/04:30pm 31.3 E 6 10 1009.6 - 0.0 - - - - - - -
19/04:00pm 31.8 ESE 6 8 1009.5 - 0.0 - - - - - - -
19/03:30pm 31.2 E 8 12 1009.4 - 0.0 - - - - - - -
19/03:00pm 31.7 E 9 15 1009.4 - 0.0 - - - - - - -
19/02:30pm 31.8 E 8 12 1009.7 - 0.0 - - - - - - -
19/02:00pm 31.7 E 8 11 1010.2 - 0.0 - - - - - - -
19/01:30pm 31.2 E 10 13 1010.5 - 0.0 - - - - - - -
19/01:00pm 31.0 E 8 13 1011.2 - 0.0 - - - - - - -
19/12:30pm 30.8 ENE 9 15 1011.7 - 0.0 - - - - - - -
19/12:00pm 29.9 E 9 15 1012.1 - 0.0 - - - - - - -
19/11:30am 29.7 E 9 14 1012.7 - 0.0 - - - - - - -
19/11:00am 29.7 E 9 14 1013.3 - 0.0 - - - - - - -
19/10:30am 28.7 E 9 16 1013.5 - 0.0 - - - - - - -
19/10:00am 28.0 E 11 18 1013.5 - 0.0 - - - - - - -
19/09:30am 27.5 E 10 14 1013.5 - 0.0 - - - - - - -
19/09:00am 26.8 E 10 14 1013.4 - 0.2 - - - - - - -
19/08:30am 26.3 E 8 14 1013.4 - 0.2 - - - - - - -
19/08:00am 25.5 E 5 9 1013.1 - 0.2 - - - - - - -
19/07:30am 24.5 E 5 7 1012.9 - 0.2 - - - - - - -
19/07:00am 23.8 E 4 6 1012.5 - 0.2 - - - - - - -
19/06:30am 23.5 E 3 5 1012.1 - 0.2 - - - - - - -
19/06:00am 23.6 E 3 5 1011.7 - 0.2 - - - - - - -
19/05:30am 23.7 E 3 4 1011.8 - 0.2 - - - - - - -
19/05:00am 23.8 E 4 5 1011.6 - 0.2 - - - - - - -
19/04:30am 24.0 E 4 6 1011.5 - 0.2 - - - - - - -
19/04:00am 24.0 E 4 6 1011.6 - 0.2 - - - - - - -
19/03:30am 23.8 E 2 4 1011.8 - 0.2 - - - - - - -
19/03:00am 23.9 E 2 4 1011.9 - 0.2 - - - - - - -
19/02:30am 23.9 SE 3 4 1012.2 - 0.2 - - - - - - -
19/02:00am 24.5 E 1 3 1012.3 - 0.2 - - - - - - -
19/01:30am 24.9 CALM 0 0 1012.8 - 0.2 - - - - - - -
19/01:00am 25.0 E 3 5 1012.9 - 0.2 - - - - - - -
19/12:30am 24.9 E 3 5 1013.3 - 0.2 - - - - - - -
19/12:00am 25.0 CALM 0 0 1013.3 - 0.2 - - - - - - -
 
Date/Time
EST
Temp

°C
Wind Pressure Rain
since 9am
mm
Weather Cloud Vis
km
Sea
Height
m
Swell
Dir
 
Speed
knots
Gust
knots
hPa Trend Height
m
Period
s
Dir
18/11:30pm 25.1 E 1 4 1013.6 - 0.2 - - - - - - -
18/11:00pm 25.6 E 3 5 1013.7 - 0.2 - - - - - - -
18/10:30pm 25.8 E 5 8 1013.8 - 0.2 - - - - - - -

Other Formats:

Comma delimited format used in spreadsheet applications
http://www.bom.gov.au/fwo/IDQ60701/IDQ60701.94268.axf

JavaScript Object Notation format (JSON) in row-major order
http://www.bom.gov.au/fwo/IDQ60701/IDQ60701.94268.json